createdAt,value
2018-09-03T00:01:33.172Z,15.70
2018-09-03T00:04:01.366Z,15.70
2018-09-03T00:06:29.553Z,15.70
2018-09-03T00:08:57.735Z,15.60
2018-09-03T00:11:25.901Z,15.50
2018-09-03T00:13:54.078Z,15.50
2018-09-03T00:16:22.271Z,15.50
2018-09-03T00:18:50.419Z,15.50
2018-09-03T00:21:18.591Z,15.50
2018-09-03T00:23:46.777Z,15.50
2018-09-03T00:26:14.951Z,15.50
2018-09-03T00:28:43.124Z,15.50
2018-09-03T00:31:16.877Z,15.50
2018-09-03T00:33:50.564Z,15.40
2018-09-03T00:36:24.292Z,15.30
2018-09-03T00:38:57.921Z,15.30
2018-09-03T00:41:31.593Z,15.40
2018-09-03T00:44:05.024Z,15.40
2018-09-03T00:46:38.678Z,15.30
2018-09-03T00:49:06.865Z,15.30
2018-09-03T00:51:35.136Z,15.30
2018-09-03T00:54:03.303Z,15.40
2018-09-03T00:56:31.553Z,15.50
2018-09-03T00:58:59.722Z,15.70
2018-09-03T01:01:27.891Z,15.80
2018-09-03T01:03:56.075Z,15.70
2018-09-03T01:06:24.263Z,15.90
2018-09-03T01:08:52.449Z,15.80
2018-09-03T01:11:24.342Z,15.90
2018-09-03T01:13:53.019Z,16.10
2018-09-03T01:16:21.224Z,16.10
2018-09-03T01:18:53.646Z,16.10
2018-09-03T01:21:22.244Z,16.10
2018-09-03T01:23:50.440Z,16.00
2018-09-03T01:26:18.620Z,15.90
2018-09-03T01:28:46.820Z,15.90
2018-09-03T01:31:18.258Z,15.90
2018-09-03T01:33:47.464Z,15.90
2018-09-03T01:36:15.964Z,15.80
2018-09-03T01:38:44.203Z,15.70
2018-09-03T01:41:12.377Z,15.70
2018-09-03T01:43:40.580Z,15.70
2018-09-03T01:46:08.788Z,15.80
2018-09-03T01:48:37.024Z,15.70
2018-09-03T01:51:05.346Z,15.60
2018-09-03T01:53:33.538Z,15.70
2018-09-03T01:56:01.762Z,15.70
2018-09-03T01:58:29.969Z,15.60
2018-09-03T02:00:58.159Z,15.70
2018-09-03T02:03:26.370Z,15.70
2018-09-03T02:05:54.571Z,15.60
2018-09-03T02:08:22.783Z,15.50
2018-09-03T02:10:50.983Z,15.50
2018-09-03T02:13:19.205Z,15.40
2018-09-03T02:15:47.389Z,15.40
2018-09-03T02:18:15.596Z,15.40
2018-09-03T02:20:43.806Z,15.40
2018-09-03T02:23:12.007Z,15.40
2018-09-03T02:25:40.204Z,15.70
2018-09-03T02:28:08.415Z,15.70
2018-09-03T02:30:36.660Z,15.80
2018-09-03T02:33:04.885Z,15.70
2018-09-03T02:35:33.080Z,15.90
2018-09-03T02:38:01.269Z,15.90
2018-09-03T02:40:29.456Z,15.90
2018-09-03T02:42:57.653Z,15.90
2018-09-03T02:45:25.858Z,15.90
2018-09-03T02:47:54.049Z,15.90
2018-09-03T02:50:22.238Z,15.90
2018-09-03T02:52:50.447Z,16.00
2018-09-03T02:55:18.666Z,15.90
2018-09-03T02:57:46.861Z,15.80
2018-09-03T03:00:15.069Z,15.80
2018-09-03T03:02:43.267Z,15.70
2018-09-03T03:05:11.487Z,15.80
2018-09-03T03:07:39.707Z,15.70
2018-09-03T03:10:07.915Z,15.70
2018-09-03T03:12:36.095Z,15.70
2018-09-03T03:15:04.325Z,15.70
2018-09-03T03:17:32.519Z,15.70
2018-09-03T03:20:00.719Z,15.60
2018-09-03T03:22:28.942Z,15.50
2018-09-03T03:24:57.150Z,15.60
2018-09-03T03:27:25.349Z,15.80
2018-09-03T03:29:53.583Z,15.90
2018-09-03T03:32:21.774Z,15.90
2018-09-03T03:34:50.007Z,15.90
2018-09-03T03:37:18.215Z,15.80
2018-09-03T03:39:46.408Z,15.70
2018-09-03T03:42:14.617Z,15.80
2018-09-03T03:44:42.835Z,15.80
2018-09-03T03:47:11.039Z,15.80
2018-09-03T03:49:39.235Z,15.80
2018-09-03T03:52:07.692Z,15.70
2018-09-03T03:54:35.901Z,15.90
2018-09-03T03:57:04.088Z,15.80
2018-09-03T03:59:32.298Z,15.80
2018-09-03T04:02:00.503Z,15.70
2018-09-03T04:04:28.737Z,15.70
2018-09-03T04:06:57.061Z,15.60
2018-09-03T04:09:25.310Z,15.60
2018-09-03T04:11:53.516Z,15.60
2018-09-03T04:14:21.730Z,15.60
2018-09-03T04:16:49.931Z,15.70
2018-09-03T04:19:18.133Z,15.80
2018-09-03T04:21:46.347Z,15.70
2018-09-03T04:24:14.555Z,15.70
2018-09-03T04:26:42.759Z,15.70
2018-09-03T04:29:10.966Z,15.70
2018-09-03T04:31:39.183Z,15.70
2018-09-03T04:34:07.399Z,15.70
2018-09-03T04:36:35.604Z,15.70
2018-09-03T04:39:05.755Z,15.70
2018-09-03T04:41:33.970Z,15.70
2018-09-03T04:44:02.184Z,15.60
2018-09-03T04:46:30.405Z,15.70
2018-09-03T04:48:58.582Z,15.70
2018-09-03T04:51:26.775Z,15.60
2018-09-03T04:53:54.975Z,15.70
2018-09-03T04:56:23.156Z,15.90
2018-09-03T04:58:51.413Z,15.90
2018-09-03T05:01:19.626Z,15.90
2018-09-03T05:03:47.853Z,15.50
2018-09-03T05:06:16.064Z,15.60
2018-09-03T05:08:44.279Z,15.80
2018-09-03T05:11:12.483Z,15.90
2018-09-03T05:13:40.690Z,15.90
2018-09-03T05:16:08.911Z,15.90
2018-09-03T05:18:37.095Z,15.90
2018-09-03T05:21:05.312Z,15.80
2018-09-03T05:23:33.507Z,16.00
2018-09-03T05:26:01.716Z,16.00
2018-09-03T05:28:29.912Z,15.90
2018-09-03T05:30:58.169Z,15.90
2018-09-03T05:33:26.346Z,15.90
2018-09-03T05:35:54.596Z,15.90
2018-09-03T05:38:22.801Z,16.00
2018-09-03T05:40:50.992Z,16.00
2018-09-03T05:43:19.345Z,15.90
2018-09-03T05:45:47.442Z,16.00
2018-09-03T05:48:15.630Z,15.90
2018-09-03T05:50:43.898Z,15.90
2018-09-03T05:53:12.059Z,15.90
2018-09-03T05:55:40.292Z,15.90
2018-09-03T05:58:08.512Z,15.80
2018-09-03T06:00:36.686Z,15.90
2018-09-03T06:03:04.946Z,15.90
2018-09-03T06:05:33.188Z,15.80
2018-09-03T06:08:01.439Z,15.80
2018-09-03T06:10:29.674Z,15.90
2018-09-03T06:12:57.847Z,15.90
2018-09-03T06:15:26.040Z,15.80
2018-09-03T06:17:54.304Z,16.00
2018-09-03T06:20:22.430Z,16.00
2018-09-03T06:22:50.654Z,16.00
2018-09-03T06:25:18.868Z,16.10
2018-09-03T06:27:47.072Z,16.10
2018-09-03T06:30:15.289Z,16.10
2018-09-03T06:32:43.513Z,16.20
2018-09-03T06:35:11.720Z,16.10
2018-09-03T06:37:39.934Z,16.20
2018-09-03T06:40:08.123Z,16.20
2018-09-03T06:42:36.343Z,16.30
2018-09-03T06:45:04.735Z,16.30
2018-09-03T06:47:32.949Z,16.20
2018-09-03T06:50:01.234Z,16.20
2018-09-03T06:52:29.438Z,16.30
2018-09-03T06:54:57.658Z,16.40
2018-09-03T06:57:25.876Z,16.40
2018-09-03T06:59:54.100Z,16.40
2018-09-03T07:02:22.302Z,16.40
2018-09-03T07:04:50.503Z,16.50
2018-09-03T07:07:18.720Z,16.50
2018-09-03T07:09:46.930Z,16.60
2018-09-03T07:12:15.137Z,16.70
2018-09-03T07:14:43.357Z,16.60
2018-09-03T07:17:11.547Z,16.70
2018-09-03T07:19:39.764Z,16.70
2018-09-03T07:22:07.957Z,16.70
2018-09-03T07:24:36.182Z,16.80
2018-09-03T07:27:04.435Z,16.80
2018-09-03T07:29:32.638Z,16.80
2018-09-03T07:32:00.857Z,16.80
2018-09-03T07:34:29.071Z,16.90
2018-09-03T07:36:57.285Z,17.10
2018-09-03T07:39:25.531Z,17.20
2018-09-03T07:41:53.740Z,17.20
2018-09-03T07:44:21.969Z,17.20
2018-09-03T07:46:50.177Z,17.30
2018-09-03T07:49:18.409Z,17.30
2018-09-03T07:51:46.610Z,17.40
2018-09-03T07:54:14.827Z,17.30
2018-09-03T07:56:43.022Z,17.30
2018-09-03T07:59:11.238Z,17.30
2018-09-03T08:01:39.449Z,17.40
2018-09-03T08:04:07.807Z,17.50
2018-09-03T08:06:36.059Z,17.50
2018-09-03T08:09:06.171Z,17.40
2018-09-03T08:11:34.817Z,17.30
2018-09-03T08:14:03.015Z,17.30
2018-09-03T08:16:31.195Z,17.50
2018-09-03T08:18:59.423Z,17.60
2018-09-03T08:21:27.621Z,17.60
2018-09-03T08:23:55.823Z,17.60
2018-09-03T08:26:23.995Z,17.60
2018-09-03T08:28:52.189Z,17.70
2018-09-03T08:31:20.397Z,17.80
2018-09-03T08:33:48.596Z,17.90
2018-09-03T08:36:16.798Z,18.00
2018-09-03T08:38:44.996Z,18.10
2018-09-03T08:41:13.208Z,18.40
2018-09-03T08:43:41.441Z,18.50
2018-09-03T08:46:09.666Z,18.60
2018-09-03T08:48:37.947Z,18.60
2018-09-03T08:51:06.152Z,18.50
2018-09-03T08:53:34.373Z,18.50
2018-09-03T08:56:02.563Z,18.60
2018-09-03T08:58:30.755Z,18.60
2018-09-03T09:00:58.992Z,18.50
2018-09-03T09:03:32.557Z,18.50
2018-09-03T09:06:00.755Z,18.50
2018-09-03T09:08:28.952Z,18.60
2018-09-03T09:10:57.154Z,18.70
2018-09-03T09:13:25.346Z,18.60
2018-09-03T09:15:53.545Z,18.80
2018-09-03T09:18:21.744Z,18.70
2018-09-03T09:20:49.951Z,18.80
2018-09-03T09:23:18.141Z,18.90
2018-09-03T09:25:46.340Z,19.10
2018-09-03T09:28:14.528Z,19.30
2018-09-03T09:30:42.740Z,19.30
2018-09-03T09:33:10.933Z,19.40
2018-09-03T09:35:39.200Z,19.20
2018-09-03T09:38:07.665Z,19.30
2018-09-03T09:40:36.068Z,19.10
2018-09-03T09:43:04.325Z,19.30
2018-09-03T09:45:32.491Z,19.50
2018-09-03T09:48:00.862Z,19.70
2018-09-03T09:50:29.066Z,19.90
2018-09-03T09:52:57.294Z,20.00
2018-09-03T09:55:25.579Z,20.10
2018-09-03T09:57:53.808Z,19.80
2018-09-03T10:00:27.407Z,19.80
2018-09-03T10:02:55.611Z,19.70
2018-09-03T10:05:23.919Z,19.90
2018-09-03T10:07:52.124Z,20.00
2018-09-03T10:10:20.380Z,20.00
2018-09-03T10:12:48.563Z,20.00
2018-09-03T10:15:16.773Z,20.00
2018-09-03T10:17:44.992Z,19.90
2018-09-03T10:20:13.195Z,19.90
2018-09-03T10:22:41.403Z,19.90
2018-09-03T10:25:09.728Z,19.90
2018-09-03T10:27:37.966Z,19.90
2018-09-03T10:30:06.169Z,20.00
2018-09-03T10:32:34.368Z,20.00
2018-09-03T10:35:02.576Z,20.10
2018-09-03T10:37:30.786Z,19.90
2018-09-03T10:39:59.043Z,19.90
2018-09-03T10:42:28.622Z,20.00
2018-09-03T10:44:56.810Z,20.00
2018-09-03T10:47:25.150Z,20.00
2018-09-03T10:49:53.197Z,20.00
2018-09-03T10:52:21.383Z,20.00
2018-09-03T10:54:49.602Z,20.00
2018-09-03T10:57:17.815Z,20.00
2018-09-03T10:59:45.996Z,19.90
2018-09-03T11:02:14.208Z,19.80
2018-09-03T11:04:42.407Z,19.70
2018-09-03T11:07:10.598Z,19.70
2018-09-03T11:09:38.781Z,19.70
2018-09-03T11:12:07.796Z,19.70
2018-09-03T11:14:36.019Z,19.70
2018-09-03T11:17:04.298Z,19.70
2018-09-03T11:19:35.683Z,19.70
2018-09-03T11:22:06.280Z,19.60
2018-09-03T11:24:34.830Z,19.70
2018-09-03T11:27:03.510Z,19.80
2018-09-03T11:29:31.751Z,19.80
2018-09-03T11:31:59.976Z,19.90
2018-09-03T11:34:28.174Z,19.90
2018-09-03T11:36:56.377Z,20.00
2018-09-03T11:39:24.633Z,20.00
2018-09-03T11:41:52.817Z,20.10
2018-09-03T11:44:20.999Z,20.10
2018-09-03T11:46:49.237Z,20.20
2018-09-03T11:49:17.431Z,20.40
2018-09-03T11:51:45.668Z,20.50
2018-09-03T11:54:13.863Z,20.50
2018-09-03T11:56:42.055Z,20.50
2018-09-03T11:59:10.266Z,20.60
2018-09-03T12:01:38.501Z,20.50
2018-09-03T12:04:06.712Z,20.60
2018-09-03T12:06:34.918Z,20.70
2018-09-03T12:09:03.908Z,20.70
2018-09-03T12:11:38.729Z,20.70
2018-09-03T12:14:10.064Z,20.90
2018-09-03T12:16:38.226Z,21.00
2018-09-03T12:19:06.426Z,21.10
2018-09-03T12:21:34.604Z,21.20
2018-09-03T12:24:02.795Z,21.20
2018-09-03T12:26:31.001Z,21.30
2018-09-03T12:28:59.213Z,21.10
2018-09-03T12:31:27.463Z,21.20
2018-09-03T12:33:55.662Z,21.30
2018-09-03T12:36:23.856Z,21.30
2018-09-03T12:38:52.094Z,21.10
2018-09-03T12:41:20.310Z,21.20
2018-09-03T12:43:48.515Z,21.30
2018-09-03T12:46:16.786Z,21.20
2018-09-03T12:48:44.935Z,21.20
2018-09-03T12:51:13.153Z,21.30
2018-09-03T12:53:41.307Z,21.00
2018-09-03T12:56:09.530Z,21.10
2018-09-03T12:58:37.725Z,21.20
2018-09-03T13:01:06.247Z,21.20
2018-09-03T13:03:34.451Z,21.10
2018-09-03T13:06:02.673Z,20.90
2018-09-03T13:08:30.838Z,21.00
2018-09-03T13:10:59.025Z,21.20
2018-09-03T13:13:27.204Z,21.40
2018-09-03T13:15:55.402Z,21.40
2018-09-03T13:18:23.643Z,21.30
2018-09-03T13:20:51.865Z,21.40
2018-09-03T13:23:20.052Z,21.50
2018-09-03T13:25:48.282Z,21.70
2018-09-03T13:28:16.480Z,21.80
2018-09-03T13:30:44.708Z,21.90
2018-09-03T13:33:12.879Z,22.00
2018-09-03T13:35:41.099Z,22.10
2018-09-03T13:38:09.288Z,22.00
2018-09-03T13:40:38.259Z,21.70
2018-09-03T13:43:06.470Z,21.60
2018-09-03T13:45:34.672Z,21.80
2018-09-03T13:48:02.840Z,22.00
2018-09-03T13:50:31.034Z,22.10
2018-09-03T13:52:59.226Z,22.10
2018-09-03T13:55:27.435Z,21.80
2018-09-03T13:57:55.632Z,21.70
2018-09-03T14:00:23.824Z,21.70
2018-09-03T14:02:51.999Z,21.80
2018-09-03T14:05:20.179Z,21.80
2018-09-03T14:07:48.650Z,21.80
2018-09-03T14:10:16.974Z,21.80
2018-09-03T14:12:45.147Z,21.60
2018-09-03T14:15:13.349Z,21.60
2018-09-03T14:17:41.683Z,21.50
2018-09-03T14:20:09.901Z,21.30
2018-09-03T14:22:38.100Z,21.30
2018-09-03T14:25:06.285Z,21.30
2018-09-03T14:27:34.513Z,21.30
2018-09-03T14:30:02.690Z,21.20
2018-09-03T14:32:30.882Z,21.40
2018-09-03T14:34:59.093Z,21.50
2018-09-03T14:37:27.301Z,21.60
2018-09-03T14:39:55.495Z,21.40
2018-09-03T14:42:23.720Z,21.50
2018-09-03T14:44:51.933Z,21.60
2018-09-03T14:47:20.136Z,21.50
2018-09-03T14:49:48.322Z,21.50
2018-09-03T14:52:16.526Z,21.70
2018-09-03T14:54:44.717Z,21.80
2018-09-03T14:57:12.928Z,21.90
2018-09-03T14:59:41.410Z,21.80
2018-09-03T15:02:09.605Z,21.90
2018-09-03T15:04:37.803Z,22.00
2018-09-03T15:07:06.515Z,22.00
2018-09-03T15:09:34.748Z,22.00
2018-09-03T15:12:02.928Z,22.10
2018-09-03T15:14:31.133Z,22.10
2018-09-03T15:16:59.319Z,22.20
2018-09-03T15:19:27.507Z,22.20
2018-09-03T15:21:55.711Z,21.90
2018-09-03T15:24:23.910Z,21.90
2018-09-03T15:26:52.099Z,22.10
2018-09-03T15:29:20.294Z,22.10
2018-09-03T15:31:48.519Z,22.00
2018-09-03T15:34:16.738Z,21.80
2018-09-03T15:36:45.013Z,22.00
2018-09-03T15:39:13.536Z,21.80
2018-09-03T15:41:42.133Z,22.00
2018-09-03T15:44:10.317Z,22.10
2018-09-03T15:46:38.488Z,22.50
2018-09-03T15:49:06.814Z,22.80
2018-09-03T15:51:34.876Z,22.90
2018-09-03T15:54:03.129Z,22.90
2018-09-03T15:56:31.292Z,23.10
2018-09-03T15:58:59.500Z,23.20
2018-09-03T16:01:27.678Z,22.70
2018-09-03T16:03:55.879Z,22.70
2018-09-03T16:06:24.063Z,22.70
2018-09-03T16:08:52.292Z,22.90
2018-09-03T16:11:20.523Z,22.90
2018-09-03T16:13:48.745Z,22.40
2018-09-03T16:16:16.923Z,22.50
2018-09-03T16:18:45.398Z,22.60
2018-09-03T16:21:13.596Z,22.30
2018-09-03T16:23:41.796Z,22.60
2018-09-03T16:26:09.973Z,22.50
2018-09-03T16:28:38.186Z,22.50
2018-09-03T16:31:06.367Z,22.70
2018-09-03T16:33:34.578Z,22.30
2018-09-03T16:36:02.857Z,22.20
2018-09-03T16:38:31.007Z,22.50
2018-09-03T16:40:59.224Z,22.30
2018-09-03T16:43:27.440Z,22.20
2018-09-03T16:45:55.643Z,22.20
2018-09-03T16:48:23.842Z,22.00
2018-09-03T16:50:52.039Z,22.00
2018-09-03T16:53:20.232Z,21.90
2018-09-03T16:55:48.426Z,22.30
2018-09-03T16:58:16.755Z,22.60
2018-09-03T17:00:44.959Z,22.60
2018-09-03T17:03:13.206Z,22.40
2018-09-03T17:05:41.609Z,22.10
2018-09-03T17:08:10.031Z,22.00
2018-09-03T17:10:38.060Z,21.80
2018-09-03T17:13:06.342Z,21.70
2018-09-03T17:15:34.543Z,21.70
2018-09-03T17:18:02.718Z,21.70
2018-09-03T17:20:31.565Z,21.60
2018-09-03T17:22:59.675Z,21.60
2018-09-03T17:25:27.863Z,21.50
2018-09-03T17:27:56.181Z,21.50
2018-09-03T17:30:24.390Z,21.40
2018-09-03T17:32:52.597Z,21.40
2018-09-03T17:35:20.884Z,21.30
2018-09-03T17:37:49.062Z,21.30
2018-09-03T17:40:17.311Z,21.30
2018-09-03T17:42:45.516Z,21.20
2018-09-03T17:45:13.742Z,21.10
2018-09-03T17:47:41.920Z,21.10
2018-09-03T17:50:10.141Z,21.10
2018-09-03T17:52:38.341Z,21.00
2018-09-03T17:55:07.506Z,20.90
2018-09-03T17:57:36.564Z,21.00
2018-09-03T18:00:04.996Z,21.00
2018-09-03T18:02:33.192Z,21.00
2018-09-03T18:05:01.393Z,20.90
2018-09-03T18:07:29.593Z,20.90
2018-09-03T18:09:57.816Z,20.80
2018-09-03T18:12:26.007Z,20.80
2018-09-03T18:14:54.198Z,20.80
2018-09-03T18:17:22.435Z,20.80
2018-09-03T18:19:50.675Z,20.70
2018-09-03T18:22:18.879Z,20.70
2018-09-03T18:24:47.073Z,20.60
2018-09-03T18:27:16.358Z,20.50
2018-09-03T18:29:44.563Z,20.50
2018-09-03T18:32:12.770Z,20.40
2018-09-03T18:34:40.966Z,20.30
2018-09-03T18:37:09.258Z,20.10
2018-09-03T18:39:37.432Z,19.90
2018-09-03T18:42:05.798Z,19.80
2018-09-03T18:44:33.928Z,19.90
2018-09-03T18:47:02.198Z,20.00
2018-09-03T18:49:30.390Z,20.00
2018-09-03T18:51:58.567Z,19.90
2018-09-03T18:54:26.759Z,19.80
2018-09-03T18:56:55.017Z,19.80
2018-09-03T18:59:23.226Z,19.80
2018-09-03T19:01:51.438Z,19.80
2018-09-03T19:04:19.631Z,19.70
2018-09-03T19:06:47.935Z,19.60
2018-09-03T19:09:16.143Z,19.50
2018-09-03T19:11:44.350Z,19.50
2018-09-03T19:14:12.548Z,19.50
2018-09-03T19:16:40.775Z,19.40
2018-09-03T19:19:08.973Z,19.50
2018-09-03T19:21:37.215Z,19.50
2018-09-03T19:24:05.413Z,19.50
2018-09-03T19:26:33.634Z,19.40
2018-09-03T19:29:01.826Z,19.40
2018-09-03T19:31:30.040Z,19.30
2018-09-03T19:33:58.239Z,19.20
2018-09-03T19:36:26.512Z,19.30
2018-09-03T19:38:54.710Z,19.30
2018-09-03T19:41:22.913Z,19.30
2018-09-03T19:43:51.100Z,19.20
2018-09-03T19:46:19.313Z,19.20
2018-09-03T19:48:47.503Z,19.20
2018-09-03T19:51:15.710Z,19.30
2018-09-03T19:53:43.915Z,19.20
2018-09-03T19:56:12.116Z,19.20
2018-09-03T19:58:40.323Z,19.10
2018-09-03T20:01:08.533Z,19.00
2018-09-03T20:03:36.747Z,18.90
2018-09-03T20:06:05.016Z,18.70
2018-09-03T20:08:33.693Z,18.70
2018-09-03T20:11:01.891Z,18.80
2018-09-03T20:13:30.117Z,18.80
2018-09-03T20:15:58.302Z,18.80
2018-09-03T20:18:26.511Z,18.60
2018-09-03T20:20:54.690Z,18.50
2018-09-03T20:23:22.938Z,18.30
2018-09-03T20:25:51.084Z,18.20
2018-09-03T20:28:19.311Z,18.10
2018-09-03T20:30:47.484Z,18.10
2018-09-03T20:33:15.679Z,18.00
2018-09-03T20:35:43.887Z,18.00
2018-09-03T20:38:12.091Z,18.00
2018-09-03T20:40:40.279Z,17.80
2018-09-03T20:43:08.467Z,17.70
2018-09-03T20:45:36.662Z,17.70
2018-09-03T20:48:04.862Z,17.80
2018-09-03T20:50:33.071Z,17.80
2018-09-03T20:53:01.281Z,17.90
2018-09-03T20:55:29.504Z,17.80
2018-09-03T20:57:57.689Z,17.80
2018-09-03T21:00:25.894Z,17.70
2018-09-03T21:02:54.095Z,17.70
2018-09-03T21:05:22.309Z,17.60
2018-09-03T21:07:50.506Z,17.50
2018-09-03T21:10:18.795Z,17.50
2018-09-03T21:12:47.229Z,17.50
2018-09-03T21:15:15.450Z,17.60
2018-09-03T21:17:43.687Z,17.50
2018-09-03T21:20:11.942Z,17.30
2018-09-03T21:22:40.132Z,17.20
2018-09-03T21:25:08.331Z,17.10
2018-09-03T21:27:36.539Z,17.30
2018-09-03T21:30:04.991Z,17.20
2018-09-03T21:32:33.190Z,17.20
2018-09-03T21:35:01.428Z,17.20
2018-09-03T21:37:29.606Z,17.30
2018-09-03T21:39:57.802Z,17.30
2018-09-03T21:42:26.013Z,17.40
2018-09-03T21:44:54.224Z,17.50
2018-09-03T21:47:22.447Z,17.40
2018-09-03T21:49:50.650Z,17.40
2018-09-03T21:52:19.040Z,17.40
2018-09-03T21:54:47.342Z,17.40
2018-09-03T21:57:15.562Z,17.30
2018-09-03T21:59:43.790Z,17.10
2018-09-03T22:02:12.002Z,17.10
2018-09-03T22:04:41.983Z,17.00
2018-09-03T22:07:10.470Z,17.00
2018-09-03T22:09:38.743Z,16.80
2018-09-03T22:12:07.094Z,16.70
2018-09-03T22:14:35.338Z,16.60
2018-09-03T22:17:03.533Z,16.50
2018-09-03T22:19:31.744Z,16.70
2018-09-03T22:21:59.934Z,16.70
2018-09-03T22:24:28.138Z,16.80
2018-09-03T22:26:56.345Z,16.90
2018-09-03T22:29:24.574Z,16.80
2018-09-03T22:31:52.773Z,16.80
2018-09-03T22:34:20.960Z,16.70
2018-09-03T22:36:49.169Z,16.70
2018-09-03T22:39:17.359Z,16.70
2018-09-03T22:41:45.554Z,16.70
2018-09-03T22:44:13.755Z,16.70
2018-09-03T22:46:41.968Z,16.70
2018-09-03T22:49:10.146Z,16.50
2018-09-03T22:51:38.575Z,16.40
2018-09-03T22:54:06.756Z,16.40
2018-09-03T22:56:34.955Z,16.30
2018-09-03T22:59:03.214Z,16.20
2018-09-03T23:01:31.411Z,15.90
2018-09-03T23:03:59.619Z,15.60
2018-09-03T23:06:27.808Z,15.60
2018-09-03T23:08:55.992Z,15.70
2018-09-03T23:11:24.203Z,15.60
2018-09-03T23:13:52.411Z,15.70
2018-09-03T23:16:20.630Z,15.70
2018-09-03T23:18:48.824Z,15.80
2018-09-03T23:21:18.102Z,15.90
2018-09-03T23:23:46.286Z,16.00
2018-09-03T23:26:14.507Z,16.00
2018-09-03T23:28:42.686Z,15.90
2018-09-03T23:31:10.894Z,15.80
2018-09-03T23:33:39.096Z,15.80
2018-09-03T23:36:07.305Z,15.80
2018-09-03T23:38:35.491Z,15.80
2018-09-03T23:41:03.711Z,15.90
2018-09-03T23:43:31.892Z,16.00
2018-09-03T23:46:00.091Z,16.00
2018-09-03T23:48:28.272Z,16.00
2018-09-03T23:50:56.454Z,16.00
2018-09-03T23:53:24.662Z,16.00
2018-09-03T23:55:52.875Z,16.00
2018-09-03T23:58:21.144Z,16.00
